Time;durP1;ratioP1;P1;durP2;ratioP2;P2;SDS_P1;SDS_P2;PMS_P1;PMS_P2;Temp;Humidity;BMP_temperature;BMP_pressure;BME280_temperature;BME280_humidity;BME280_pressure;Samples;Min_cycle;Max_cycle;Signal;HPM_P1;HPM_P2
2023/09/13 00:00:39;;;;;;;3.5;2.2;;;;;;;17.57;100;936.932;;;;
2023/09/13 00:03:04;;;;;;;2.2;1.8;;;;;;;17.62;99.42969;936.966;;;;
2023/09/13 00:05:30;;;;;;;3.4;1.9;;;;;;;17.64;97.90137;936.9978;;;;
2023/09/13 00:07:56;;;;;;;2;1.8;;;;;;;17.63;97.26367;937.0004;;;;
2023/09/13 00:10:21;;;;;;;2.3;1.8;;;;;;;17.72;97.9541;936.9901;;;;
2023/09/13 00:12:46;;;;;;;3.5;1.9;;;;;;;17.84;98.40039;937.0782;;;;
2023/09/13 00:15:11;;;;;;;2.5;2;;;;;;;17.77;99.51074;937.0566;;;;
2023/09/13 00:17:36;;;;;;;2.7;1.9;;;;;;;17.72;98.31445;936.9402;;;;
2023/09/13 00:20:03;;;;;;;3.1;2.2;;;;;;;17.85;99.48047;936.9718;;;;
2023/09/13 00:22:27;;;;;;;3.1;2.3;;;;;;;17.81;99.75098;936.9955;;;;
2023/09/13 00:24:52;;;;;;;2.9;1.9;;;;;;;17.74;99.80371;936.9961;;;;
2023/09/13 00:27:17;;;;;;;3.1;2.4;;;;;;;17.74;99.60645;936.9905;;;;
2023/09/13 00:29:42;;;;;;;2.5;1.9;;;;;;;17.68;98.97754;937.0328;;;;
2023/09/13 00:32:07;;;;;;;3.7;2.1;;;;;;;17.67;100;937.0803;;;;
2023/09/13 00:34:32;;;;;;;2.8;1.7;;;;;;;17.78;99.89551;937.0275;;;;
2023/09/13 00:36:58;;;;;;;3.5;1.9;;;;;;;17.92;99.18359;937.0413;;;;
2023/09/13 00:39:23;;;;;;;3.8;1.8;;;;;;;17.93;99.64941;937.0538;;;;
2023/09/13 00:41:49;;;;;;;3;2.1;;;;;;;17.92;99.04395;936.9847;;;;
2023/09/13 00:44:14;;;;;;;2.3;2;;;;;;;17.87;100;936.9359;;;;
2023/09/13 00:46:39;;;;;;;3;2.2;;;;;;;17.9;99.73633;937.0148;;;;
2023/09/13 00:49:04;;;;;;;2.1;1.8;;;;;;;17.78;100;937.0011;;;;
2023/09/13 00:51:29;;;;;;;2.5;1.9;;;;;;;17.75;99.31836;937.0347;;;;
2023/09/13 00:53:56;;;;;;;2.4;1.7;;;;;;;17.66;100;936.9797;;;;
2023/09/13 00:56:21;;;;;;;3.2;2;;;;;;;17.66;100;937.058;;;;
2023/09/13 00:58:47;;;;;;;2.1;1.9;;;;;;;17.58;99.78125;937.0558;;;;
2023/09/13 01:01:13;;;;;;;2.2;1.8;;;;;;;17.71;98.46094;936.9833;;;;
2023/09/13 01:03:37;;;;;;;3.3;1.9;;;;;;;17.88;97.89551;937.0009;;;;
2023/09/13 01:06:02;;;;;;;3.5;1.9;;;;;;;18.02;97.40527;937.0681;;;;
2023/09/13 01:08:27;;;;;;;3.1;2;;;;;;;18.08;97.73047;937.1356;;;;
2023/09/13 01:10:52;;;;;;;4.1;2;;;;;;;18.12;97.56641;937.2008;;;;
2023/09/13 01:13:17;;;;;;;2.1;1.9;;;;;;;18.11;97.13477;937.1802;;;;
2023/09/13 01:15:42;;;;;;;2.1;1.8;;;;;;;18.09;97.24707;937.2659;;;;
2023/09/13 01:18:08;;;;;;;3.9;1.9;;;;;;;17.94;97.93262;937.2381;;;;
2023/09/13 01:20:33;;;;;;;4.7;2.1;;;;;;;17.94;98.23535;937.2961;;;;
2023/09/13 01:22:58;;;;;;;2.5;2.3;;;;;;;18.03;98.01074;937.3284;;;;
2023/09/13 01:25:25;;;;;;;2.9;2.2;;;;;;;18.05;98.20117;937.3683;;;;
2023/09/13 01:27:53;;;;;;;2.6;2.1;;;;;;;17.98;98.84668;937.384;;;;
2023/09/13 01:30:15;;;;;;;2.4;2.1;;;;;;;17.86;99.94922;937.3436;;;;
2023/09/13 01:32:41;;;;;;;3.3;2.1;;;;;;;17.8;100;937.2615;;;;
2023/09/13 01:35:07;;;;;;;3.2;2;;;;;;;17.86;99.78418;937.2117;;;;
2023/09/13 01:37:32;;;;;;;2.8;2;;;;;;;17.84;99.32715;937.3136;;;;
2023/09/13 01:39:57;;;;;;;2.4;2;;;;;;;17.86;98.93652;937.2535;;;;
2023/09/13 01:42:22;;;;;;;3;2.2;;;;;;;17.87;98.89453;937.2862;;;;
2023/09/13 01:44:48;;;;;;;2.8;1.8;;;;;;;17.86;98.82227;937.2727;;;;
2023/09/13 01:47:13;;;;;;;3.1;1.8;;;;;;;17.93;98.1416;937.293;;;;
2023/09/13 01:49:40;;;;;;;3.8;2.2;;;;;;;17.88;99.05859;937.2562;;;;
2023/09/13 01:52:05;;;;;;;4.4;2.4;;;;;;;17.73;100;937.2647;;;;
2023/09/13 01:54:30;;;;;;;2.6;2.1;;;;;;;17.56;100;937.3333;;;;
2023/09/13 01:56:55;;;;;;;2.9;2.1;;;;;;;17.57;100;937.3574;;;;
2023/09/13 01:59:20;;;;;;;4.2;2.2;;;;;;;17.61;100;937.2841;;;;
2023/09/13 02:01:45;;;;;;;4;2.4;;;;;;;17.58;98.92188;937.3063;;;;
2023/09/13 02:04:10;;;;;;;2.9;2.1;;;;;;;17.64;99.07324;937.2781;;;;
2023/09/13 02:06:36;;;;;;;4.1;2.4;;;;;;;17.66;99.81055;937.3059;;;;
2023/09/13 02:09:01;;;;;;;2.5;1.9;;;;;;;17.67;99.78809;937.3226;;;;
2023/09/13 02:11:26;;;;;;;3;2.4;;;;;;;17.67;99.96191;937.3403;;;;
2023/09/13 02:13:52;;;;;;;2.9;2.2;;;;;;;17.68;99.35059;937.3162;;;;
2023/09/13 02:16:16;;;;;;;2.9;2.2;;;;;;;17.66;99.21875;937.2696;;;;
2023/09/13 02:18:41;;;;;;;2.9;2.1;;;;;;;17.55;100;937.1878;;;;
2023/09/13 02:21:06;;;;;;;2.4;2.2;;;;;;;17.37;100;937.1425;;;;
2023/09/13 02:23:32;;;;;;;2.4;2.1;;;;;;;17.31;100;937.1339;;;;
2023/09/13 02:25:57;;;;;;;4;2.3;;;;;;;17.3;100;937.2814;;;;
2023/09/13 02:28:22;;;;;;;3;2.2;;;;;;;17.34;100;937.2534;;;;
2023/09/13 02:30:48;;;;;;;3.8;2;;;;;;;17.34;100;937.1608;;;;
2023/09/13 02:33:13;;;;;;;2.1;1.9;;;;;;;17.36;100;937.1967;;;;
2023/09/13 02:35:39;;;;;;;5.3;1.8;;;;;;;17.26;100;937.2483;;;;
2023/09/13 02:38:03;;;;;;;4.4;2.1;;;;;;;17.33;100;937.35;;;;
2023/09/13 02:40:28;;;;;;;3.9;2.3;;;;;;;17.39;100;937.3578;;;;
2023/09/13 02:42:53;;;;;;;3.2;2.2;;;;;;;17.44;100;937.4006;;;;
2023/09/13 02:45:18;;;;;;;3;2.1;;;;;;;17.5;100;937.4166;;;;
2023/09/13 02:47:44;;;;;;;3.1;2;;;;;;;17.48;100;937.3663;;;;
2023/09/13 02:50:13;;;;;;;2.5;2.3;;;;;;;17.36;100;937.4341;;;;
2023/09/13 02:52:38;;;;;;;2.4;2.2;;;;;;;17.34;99.95703;937.4683;;;;
2023/09/13 02:55:05;;;;;;;3.3;2;;;;;;;17.36;100;937.5123;;;;
2023/09/13 02:57:28;;;;;;;4.2;2.6;;;;;;;17.29;100;937.5045;;;;
2023/09/13 02:59:54;;;;;;;3.5;2.4;;;;;;;17.27;100;937.4832;;;;
2023/09/13 03:02:20;;;;;;;2.5;2.2;;;;;;;17.23;100;937.4903;;;;
2023/09/13 03:04:45;;;;;;;5.2;2.7;;;;;;;17.28;100;937.5071;;;;
2023/09/13 03:07:10;;;;;;;2.7;2.1;;;;;;;17.29;100;937.491;;;;
2023/09/13 03:09:35;;;;;;;3.5;2.3;;;;;;;17.3;100;937.5148;;;;
2023/09/13 03:12:05;;;;;;;3.4;2.1;;;;;;;17.29;100;937.5272;;;;
2023/09/13 03:14:32;;;;;;;3.2;2.3;;;;;;;17.28;100;937.5531;;;;
2023/09/13 03:16:57;;;;;;;4.5;2.8;;;;;;;17.26;100;937.5486;;;;
2023/09/13 03:19:27;;;;;;;6.1;2.8;;;;;;;17.28;100;937.5948;;;;
2023/09/13 03:21:52;;;;;;;3.8;2.6;;;;;;;17.32;100;937.6078;;;;
2023/09/13 03:24:17;;;;;;;4;2.4;;;;;;;17.39;100;937.6541;;;;
2023/09/13 03:26:46;;;;;;;3.1;2.3;;;;;;;17.39;100;937.5906;;;;
2023/09/13 03:29:13;;;;;;;3.1;2.7;;;;;;;17.32;100;937.6216;;;;
2023/09/13 03:31:41;;;;;;;2.7;2.4;;;;;;;17.22;100;937.5862;;;;
2023/09/13 03:34:06;;;;;;;3.4;2.6;;;;;;;17.15;100;937.5839;;;;
2023/09/13 03:36:33;;;;;;;3.8;2.2;;;;;;;16.94;100;937.5854;;;;
2023/09/13 03:39:02;;;;;;;3.4;2.6;;;;;;;16.97;100;937.6672;;;;
2023/09/13 03:41:27;;;;;;;3.6;2.5;;;;;;;16.89;100;937.7336;;;;
2023/09/13 03:43:59;;;;;;;5.4;2.7;;;;;;;16.9;100;937.8066;;;;
2023/09/13 03:46:27;;;;;;;4.3;3;;;;;;;16.92;100;937.7869;;;;
2023/09/13 03:48:53;;;;;;;3;2;;;;;;;16.83;100;937.7739;;;;
2023/09/13 03:51:18;;;;;;;5.2;2.5;;;;;;;16.91;100;937.8225;;;;
2023/09/13 03:53:44;;;;;;;4.5;2.3;;;;;;;17.09;100;937.7966;;;;
2023/09/13 03:56:15;;;;;;;4.4;2.4;;;;;;;17.13;100;937.7983;;;;
2023/09/13 03:58:46;;;;;;;3.6;2.5;;;;;;;17.15;100;937.8527;;;;
2023/09/13 04:02:45;;;;;;;2.9;2.2;;;;;;;17.29;100;937.6889;;;;
2023/09/13 04:05:10;;;;;;;3.1;2.1;;;;;;;17.4;100;937.6201;;;;
2023/09/13 04:07:35;;;;;;;4.2;2.3;;;;;;;17.36;100;937.7239;;;;
2023/09/13 04:10:04;;;;;;;2.5;2.3;;;;;;;17.16;100;937.8027;;;;
2023/09/13 04:12:28;;;;;;;3.2;2.4;;;;;;;17.05;100;937.7828;;;;
2023/09/13 04:14:54;;;;;;;3.2;2.5;;;;;;;16.97;100;937.6969;;;;
2023/09/13 04:17:20;;;;;;;3.4;2.4;;;;;;;17.1;100;937.6975;;;;
2023/09/13 04:19:45;;;;;;;4.2;2.5;;;;;;;17.04;100;937.6903;;;;
2023/09/13 04:22:10;;;;;;;4.7;2.6;;;;;;;17.09;100;937.7772;;;;
2023/09/13 04:24:40;;;;;;;4.2;2.5;;;;;;;17.28;100;937.8082;;;;
2023/09/13 04:27:05;;;;;;;5.6;2.4;;;;;;;17.29;100;937.6833;;;;
2023/09/13 04:29:31;;;;;;;4.9;2.4;;;;;;;17.25;100;937.7114;;;;
2023/09/13 04:32:00;;;;;;;3.1;2.1;;;;;;;17.31;100;937.6331;;;;
2023/09/13 04:34:36;;;;;;;3.5;2.5;;;;;;;17.2;100;937.5469;;;;
2023/09/13 04:36:55;;;;;;;3.5;2.3;;;;;;;17.34;100;937.5641;;;;
2023/09/13 04:39:27;;;;;;;4.9;2.6;;;;;;;17.27;100;937.5919;;;;
2023/09/13 04:41:54;;;;;;;3.8;2.6;;;;;;;17.12;100;937.6674;;;;
2023/09/13 04:44:21;;;;;;;6.3;3;;;;;;;17.13;100;937.6914;;;;
2023/09/13 04:46:46;;;;;;;3.3;2.7;;;;;;;17.22;100;937.9152;;;;
2023/09/13 04:49:18;;;;;;;4.2;2.6;;;;;;;17.19;100;937.947;;;;
2023/09/13 04:51:48;;;;;;;2.9;2.3;;;;;;;17.08;100;938.0269;;;;
2023/09/13 04:54:22;;;;;;;4.9;2.6;;;;;;;16.94;100;938.1004;;;;
2023/09/13 04:56:53;;;;;;;3.4;2.7;;;;;;;16.76;100;938.1992;;;;
2023/09/13 04:59:24;;;;;;;5;2.8;;;;;;;16.78;100;938.2954;;;;
2023/09/13 05:01:56;;;;;;;4;2.7;;;;;;;16.82;100;938.3809;;;;
2023/09/13 05:04:25;;;;;;;5.4;3.2;;;;;;;16.8;100;938.378;;;;
2023/09/13 05:06:50;;;;;;;5.8;3.2;;;;;;;16.69;100;938.332;;;;
2023/09/13 05:09:19;;;;;;;3.4;2.7;;;;;;;16.85;100;938.3727;;;;
2023/09/13 05:11:45;;;;;;;4.9;3;;;;;;;16.86;100;938.4008;;;;
2023/09/13 05:14:14;;;;;;;5.8;3.3;;;;;;;17.04;100;938.4169;;;;
2023/09/13 05:16:39;;;;;;;3.8;3.1;;;;;;;17.15;100;938.3653;;;;
2023/09/13 05:19:10;;;;;;;4.1;3.1;;;;;;;17.26;100;938.3187;;;;
2023/09/13 05:21:42;;;;;;;5.3;3.5;;;;;;;17.35;100;938.2319;;;;
2023/09/13 05:24:12;;;;;;;6;3.5;;;;;;;17.36;100;938.1216;;;;
2023/09/13 05:26:44;;;;;;;6.6;3.3;;;;;;;17.28;100;938.1285;;;;
2023/09/13 05:29:12;;;;;;;5.1;3.3;;;;;;;17.2;100;938.2816;;;;
2023/09/13 05:31:37;;;;;;;6;3.4;;;;;;;17.19;100;938.3027;;;;
2023/09/13 05:34:02;;;;;;;5.1;3.4;;;;;;;17.19;100;938.3469;;;;
2023/09/13 05:36:31;;;;;;;4.6;3.1;;;;;;;17.11;100;938.3105;;;;
2023/09/13 05:38:56;;;;;;;4.8;3;;;;;;;17.06;100;938.3667;;;;
2023/09/13 05:41:23;;;;;;;6.8;3.2;;;;;;;17.19;100;938.4651;;;;
2023/09/13 05:43:48;;;;;;;4.8;3.3;;;;;;;17.3;100;938.4598;;;;
2023/09/13 05:46:15;;;;;;;4.4;3.1;;;;;;;17.3;100;938.4742;;;;
2023/09/13 05:48:40;;;;;;;7.5;3.3;;;;;;;17.27;100;938.3298;;;;
2023/09/13 05:51:08;;;;;;;4.6;3.3;;;;;;;17.33;100;938.2145;;;;
2023/09/13 05:53:33;;;;;;;4.6;3.2;;;;;;;17.46;100;938.0517;;;;
2023/09/13 05:56:03;;;;;;;5.1;3.2;;;;;;;17.42;100;937.9501;;;;
2023/09/13 05:58:31;;;;;;;5.9;3.8;;;;;;;17.48;100;937.95;;;;
2023/09/13 06:00:57;;;;;;;6.3;3.8;;;;;;;17.47;100;937.9379;;;;
2023/09/13 06:03:24;;;;;;;5.3;3.5;;;;;;;17.51;100;937.9285;;;;
2023/09/13 06:05:51;;;;;;;6.8;3.4;;;;;;;17.5;100;937.8786;;;;
2023/09/13 06:08:17;;;;;;;7.3;3.8;;;;;;;17.32;100;938.0134;;;;
2023/09/13 06:10:42;;;;;;;5.3;3.9;;;;;;;17.19;100;938.0789;;;;
2023/09/13 06:13:10;;;;;;;4.7;3.5;;;;;;;17.36;100;938.0226;;;;
2023/09/13 06:15:36;;;;;;;5.6;3.5;;;;;;;17.61;100;937.9379;;;;
2023/09/13 06:18:02;;;;;;;5.7;3.4;;;;;;;17.94;100;937.8851;;;;
2023/09/13 06:20:28;;;;;;;4.6;3.4;;;;;;;18.15;100;937.8643;;;;
2023/09/13 06:22:56;;;;;;;4;3.2;;;;;;;18.44;100;937.8452;;;;
2023/09/13 06:25:22;;;;;;;4.4;2.9;;;;;;;18.38;99.49609;937.7315;;;;
2023/09/13 06:27:47;;;;;;;4.3;3.3;;;;;;;18.32;100;937.8192;;;;
2023/09/13 06:30:15;;;;;;;4.9;3.3;;;;;;;18.34;100;937.9065;;;;
2023/09/13 06:32:40;;;;;;;5.9;3.4;;;;;;;18.45;100;937.9852;;;;
2023/09/13 06:35:06;;;;;;;5.2;3;;;;;;;18.45;100;938.0214;;;;
2023/09/13 06:37:31;;;;;;;5.8;3.9;;;;;;;18.4;100;937.9794;;;;
2023/09/13 06:39:58;;;;;;;6.3;3.5;;;;;;;18.11;100;938.1077;;;;
2023/09/13 06:42:23;;;;;;;4.7;2.9;;;;;;;18.02;100;938.2028;;;;
2023/09/13 06:44:52;;;;;;;4.7;3.4;;;;;;;18.03;100;938.1301;;;;
2023/09/13 06:47:17;;;;;;;4.6;3.2;;;;;;;18.15;100;938.1714;;;;
2023/09/13 06:49:44;;;;;;;4.3;3;;;;;;;18.27;100;938.2046;;;;
2023/09/13 06:52:09;;;;;;;3.6;2.9;;;;;;;18.48;100;938.2321;;;;
2023/09/13 06:54:37;;;;;;;4.4;2.6;;;;;;;18.62;100;938.1582;;;;
2023/09/13 06:57:04;;;;;;;5.3;2.8;;;;;;;18.86;100;938.0649;;;;
2023/09/13 06:59:30;;;;;;;3.9;3;;;;;;;18.92;100;938.0975;;;;
2023/09/13 07:01:55;;;;;;;4.4;3.2;;;;;;;18.85;100;938.1079;;;;
2023/09/13 07:04:20;;;;;;;5.4;3.4;;;;;;;18.96;99.89453;938.1086;;;;
2023/09/13 07:06:45;;;;;;;3.4;2.9;;;;;;;18.98;99.60938;938.067;;;;
2023/09/13 07:09:13;;;;;;;4.9;3.1;;;;;;;19.05;100;938.1172;;;;
2023/09/13 07:11:38;;;;;;;5.2;3.2;;;;;;;19.07;100;938.0684;;;;
2023/09/13 07:14:04;;;;;;;4.7;3.3;;;;;;;19.36;99.33398;938.0455;;;;
2023/09/13 07:16:29;;;;;;;3.6;2.7;;;;;;;19.58;97.23633;938.0569;;;;
2023/09/13 07:18:57;;;;;;;4.5;2.8;;;;;;;19.32;97.7168;938.0732;;;;
2023/09/13 07:21:22;;;;;;;3.5;2.4;;;;;;;19.31;96.4209;938.1397;;;;
2023/09/13 07:23:48;;;;;;;4.3;2.5;;;;;;;19.77;95.14355;938.1412;;;;
2023/09/13 07:26:14;;;;;;;4.6;2.9;;;;;;;19.97;91.31543;938.2192;;;;
2023/09/13 07:28:40;;;;;;;3.7;2.3;;;;;;;20.07;90.93945;938.2299;;;;
2023/09/13 07:31:05;;;;;;;4.4;2.1;;;;;;;20.19;92.45898;938.2668;;;;
2023/09/13 07:33:31;;;;;;;4.1;2.8;;;;;;;20.22;89.36914;938.2969;;;;
2023/09/13 07:35:56;;;;;;;4.8;2.5;;;;;;;20.6;88.32422;938.3906;;;;
2023/09/13 07:38:23;;;;;;;3.5;2.6;;;;;;;21.34;85.98145;938.4147;;;;
2023/09/13 07:40:48;;;;;;;3.3;2.3;;;;;;;21.99;79.67285;938.3984;;;;
2023/09/13 07:43:16;;;;;;;3;2.2;;;;;;;22.36;78.35547;938.395;;;;
2023/09/13 07:45:39;;;;;;;2.8;2.2;;;;;;;22.69;77.70996;938.4509;;;;
2023/09/13 07:48:10;;;;;;;2.8;1.9;;;;;;;23.57;75.63867;938.4961;;;;
2023/09/13 07:50:41;;;;;;;3;2.1;;;;;;;23.81;73.15039;938.4805;;;;
2023/09/13 07:53:12;;;;;;;2;1.7;;;;;;;24.1;71.44336;938.478;;;;
2023/09/13 07:55:41;;;;;;;3.3;1.8;;;;;;;23.55;72.40137;938.5712;;;;
2023/09/13 07:58:06;;;;;;;3.1;2;;;;;;;23.27;73.91895;938.5058;;;;
2023/09/13 08:00:35;;;;;;;2.1;1.8;;;;;;;23.32;72.94043;938.5344;;;;
2023/09/13 08:03:00;;;;;;;2.1;1.8;;;;;;;23.3;74.03125;938.5392;;;;
2023/09/13 08:05:25;;;;;;;3.1;2;;;;;;;22.98;72.26172;938.5505;;;;
2023/09/13 08:07:51;;;;;;;4.8;2;;;;;;;22.72;75.37891;938.6016;;;;
2023/09/13 08:10:16;;;;;;;3.1;1.9;;;;;;;22.3;78.41504;938.6453;;;;
2023/09/13 08:12:42;;;;;;;2;1.8;;;;;;;22.35;77.29883;938.6282;;;;
2023/09/13 08:15:10;;;;;;;2.4;1.9;;;;;;;22.44;78.58105;938.5392;;;;
2023/09/13 08:17:35;;;;;;;3.7;2.1;;;;;;;22.82;74.32715;938.5446;;;;
2023/09/13 08:20:01;;;;;;;4;2;;;;;;;22.99;72.79199;938.5629;;;;
2023/09/13 08:22:26;;;;;;;2.6;2;;;;;;;22.47;72.73145;938.5327;;;;
2023/09/13 08:24:53;;;;;;;3.7;2.1;;;;;;;22.39;76.60059;938.5328;;;;
2023/09/13 08:27:18;;;;;;;2.4;2;;;;;;;22.76;76.59375;938.5377;;;;
2023/09/13 08:29:43;;;;;;;2;1.8;;;;;;;22.6;73.00977;938.5288;;;;
2023/09/13 08:32:09;;;;;;;3.6;1.8;;;;;;;23.58;74.30078;938.5125;;;;
2023/09/13 08:34:35;;;;;;;2.5;1.7;;;;;;;23.91;71.88477;938.5628;;;;
2023/09/13 08:37:02;;;;;;;3;2.1;;;;;;;23.51;68.03223;938.6297;;;;
2023/09/13 08:39:27;;;;;;;2.4;1.8;;;;;;;23.19;70.09961;938.6124;;;;
2023/09/13 08:41:53;;;;;;;3.5;1.9;;;;;;;23.52;72.56152;938.6472;;;;
2023/09/13 08:44:20;;;;;;;2.6;1.8;;;;;;;23.41;68.1582;938.6448;;;;
2023/09/13 08:46:45;;;;;;;2.7;1.7;;;;;;;23.56;69.65039;938.5905;;;;
2023/09/13 08:49:10;;;;;;;2.4;1.6;;;;;;;23.87;70.06543;938.503;;;;
2023/09/13 08:51:36;;;;;;;1.8;1.7;;;;;;;23.89;69.92676;938.5103;;;;
2023/09/13 08:54:03;;;;;;;2.6;2;;;;;;;24.18;69.10156;938.4883;;;;
2023/09/13 08:56:28;;;;;;;2.9;1.7;;;;;;;24.38;67.30566;938.486;;;;
2023/09/13 08:58:53;;;;;;;3.1;1.8;;;;;;;23.85;66.84766;938.4348;;;;
2023/09/13 09:01:18;;;;;;;2.9;1.8;;;;;;;23.35;68.58496;938.5209;;;;
2023/09/13 09:03:43;;;;;;;4.3;1.7;;;;;;;23.48;67.69727;938.5627;;;;
2023/09/13 09:06:09;;;;;;;3.5;1.9;;;;;;;23.55;68.02637;938.573;;;;
2023/09/13 09:08:39;;;;;;;2.2;1.5;;;;;;;23.64;67.3125;938.5209;;;;
2023/09/13 09:11:02;;;;;;;2.5;1.7;;;;;;;23.3;69.01074;938.5469;;;;
2023/09/13 09:13:31;;;;;;;3.6;1.8;;;;;;;23.07;69.86816;938.5831;;;;
2023/09/13 09:15:56;;;;;;;2.5;1.8;;;;;;;23.04;74.71582;938.5994;;;;
2023/09/13 09:18:25;;;;;;;2.4;1.7;;;;;;;23;72.44141;938.5189;;;;
2023/09/13 09:20:51;;;;;;;2.4;1.6;;;;;;;22.92;74.44922;938.5988;;;;
2023/09/13 09:23:16;;;;;;;2.8;2;;;;;;;22.71;74.26074;938.5744;;;;
2023/09/13 09:25:43;;;;;;;2.8;1.8;;;;;;;22.64;72.71094;938.5447;;;;
2023/09/13 09:28:06;;;;;;;1.7;1.6;;;;;;;22.78;75.51855;938.5555;;;;
2023/09/13 09:30:37;;;;;;;3.3;1.7;;;;;;;22.94;73.94727;938.5293;;;;
2023/09/13 09:33:03;;;;;;;3.1;2;;;;;;;23.05;74.99902;938.553;;;;
2023/09/13 09:35:27;;;;;;;3.7;1.6;;;;;;;22.98;71.85059;938.5675;;;;
2023/09/13 09:37:53;;;;;;;1.9;1.5;;;;;;;22.97;73.90527;938.5628;;;;
2023/09/13 09:40:19;;;;;;;3.6;1.7;;;;;;;22.88;72.5293;938.5483;;;;
2023/09/13 09:42:44;;;;;;;2.4;1.9;;;;;;;22.95;73.50293;938.5092;;;;
2023/09/13 09:45:11;;;;;;;2.8;1.7;;;;;;;22.93;75.08496;938.5172;;;;
2023/09/13 09:47:36;;;;;;;2.9;1.9;;;;;;;22.87;76.50586;938.4856;;;;
2023/09/13 09:50:02;;;;;;;3.5;1.9;;;;;;;22.71;77.60742;938.5605;;;;
2023/09/13 09:52:27;;;;;;;2.7;2.1;;;;;;;22.59;77.83398;938.5508;;;;
2023/09/13 09:54:52;;;;;;;2.2;1.8;;;;;;;22.45;78.52441;938.5195;;;;
2023/09/13 09:57:17;;;;;;;3.3;1.9;;;;;;;22.26;78.00977;938.5591;;;;
2023/09/13 09:59:42;;;;;;;3.3;1.8;;;;;;;22.24;79.81055;938.5795;;;;
2023/09/13 10:02:07;;;;;;;2.1;1.9;;;;;;;22.28;80.0166;938.6365;;;;
2023/09/13 10:04:35;;;;;;;2.6;1.8;;;;;;;22.15;79.98242;938.6487;;;;
2023/09/13 10:07:03;;;;;;;2.1;1.8;;;;;;;22.06;80.97363;938.6382;;;;
2023/09/13 10:09:25;;;;;;;4.2;2.1;;;;;;;22.19;81.24512;938.5922;;;;
2023/09/13 10:11:53;;;;;;;3.3;1.9;;;;;;;22.27;81.7998;938.6042;;;;
2023/09/13 10:14:17;;;;;;;2.5;1.9;;;;;;;22.33;81.04688;938.6275;;;;
2023/09/13 10:16:42;;;;;;;2.7;1.8;;;;;;;22.37;81.73535;938.6252;;;;
2023/09/13 10:19:11;;;;;;;2.1;1.7;;;;;;;22.46;82.38379;938.6353;;;;
2023/09/13 10:21:34;;;;;;;4.6;2;;;;;;;22.42;81.08691;938.6843;;;;
2023/09/13 10:23:59;;;;;;;2.9;2;;;;;;;22.4;81.51758;938.6103;;;;
2023/09/13 10:26:26;;;;;;;2.1;1.6;;;;;;;22.33;78.86523;938.5917;;;;
2023/09/13 10:28:52;;;;;;;3.4;2;;;;;;;22.17;79.69434;938.6401;;;;
2023/09/13 10:31:19;;;;;;;2;1.8;;;;;;;22.07;78.9375;938.62;;;;
2023/09/13 10:33:43;;;;;;;4.9;2.3;;;;;;;22.15;79.53711;938.6522;;;;
2023/09/13 10:36:09;;;;;;;2.9;1.7;;;;;;;22.15;78.5752;938.6277;;;;
2023/09/13 10:38:36;;;;;;;2;1.8;;;;;;;22.25;78.81738;938.5847;;;;
2023/09/13 10:40:59;;;;;;;2.2;1.5;;;;;;;22.06;77.64648;938.6244;;;;
2023/09/13 10:43:24;;;;;;;2.3;1.7;;;;;;;22.06;77.92676;938.6116;;;;
2023/09/13 10:45:50;;;;;;;4.4;1.7;;;;;;;22.19;79.42773;938.524;;;;
2023/09/13 10:48:15;;;;;;;2.1;1.8;;;;;;;22.26;77.27051;938.5623;;;;
2023/09/13 10:50:44;;;;;;;4.2;1.8;;;;;;;22.23;76.74902;938.5481;;;;
2023/09/13 10:53:09;;;;;;;3.1;1.8;;;;;;;22.34;78.28223;938.5759;;;;
2023/09/13 10:55:39;;;;;;;2.4;1.8;;;;;;;22.43;80.41992;938.6411;;;;
2023/09/13 10:58:04;;;;;;;2;1.8;;;;;;;22.47;78.46875;938.5837;;;;
2023/09/13 11:00:32;;;;;;;3.9;1.8;;;;;;;22.34;77.58984;938.6197;;;;
2023/09/13 11:02:56;;;;;;;2.5;1.6;;;;;;;22.22;77.29785;938.5994;;;;
2023/09/13 11:05:21;;;;;;;2.6;1.8;;;;;;;22.28;78.16504;938.6639;;;;
2023/09/13 11:07:49;;;;;;;2.1;1.8;;;;;;;22.42;79.30371;938.6209;;;;
2023/09/13 11:10:14;;;;;;;2.2;1.8;;;;;;;22.51;80.93945;938.6181;;;;
2023/09/13 11:12:39;;;;;;;2.8;1.7;;;;;;;22.48;81.54395;938.6541;;;;
2023/09/13 11:15:05;;;;;;;3;1.9;;;;;;;22.53;82.67871;938.6888;;;;
2023/09/13 11:17:34;;;;;;;3.4;1.8;;;;;;;22.52;84.30859;938.6948;;;;
2023/09/13 11:19:56;;;;;;;3.1;1.9;;;;;;;22.46;84.36719;938.7003;;;;
2023/09/13 11:22:22;;;;;;;2.2;2;;;;;;;22.4;85.81152;938.6866;;;;
2023/09/13 11:24:48;;;;;;;4.4;2;;;;;;;22.46;84.88477;938.6294;;;;
2023/09/13 11:27:12;;;;;;;2.7;1.9;;;;;;;22.53;82.25781;938.6652;;;;
2023/09/13 11:29:37;;;;;;;2.8;2.1;;;;;;;22.7;80.95215;938.6875;;;;
2023/09/13 11:32:04;;;;;;;5.5;2.5;;;;;;;22.69;79.12891;938.7068;;;;
2023/09/13 11:34:29;;;;;;;2.9;2.2;;;;;;;22.75;81.54883;938.6727;;;;
2023/09/13 11:36:55;;;;;;;3.6;2.5;;;;;;;22.65;78.30078;938.627;;;;
2023/09/13 11:39:21;;;;;;;5.6;2.4;;;;;;;22.74;79.00781;938.6287;;;;
2023/09/13 11:41:46;;;;;;;2.6;2.3;;;;;;;22.91;78.27637;938.6644;;;;
2023/09/13 11:44:11;;;;;;;2.6;2.4;;;;;;;22.96;76.08984;938.6476;;;;
2023/09/13 11:46:39;;;;;;;3.5;2.7;;;;;;;22.68;78.36426;938.579;;;;
2023/09/13 11:49:04;;;;;;;3.2;2.5;;;;;;;22.32;80.70508;938.6561;;;;
2023/09/13 11:51:29;;;;;;;3.5;2.3;;;;;;;22.49;81.6377;938.6141;;;;
2023/09/13 11:53:54;;;;;;;3.4;2.5;;;;;;;22.7;81.5957;938.6635;;;;
2023/09/13 11:56:20;;;;;;;3.2;2.4;;;;;;;22.8;80.17188;938.6555;;;;
2023/09/13 11:58:45;;;;;;;2.9;2.6;;;;;;;22.65;81.45801;938.5978;;;;
2023/09/13 12:01:10;;;;;;;4.3;2.7;;;;;;;22.7;80.24609;938.5936;;;;
2023/09/13 12:03:36;;;;;;;4;2.8;;;;;;;22.67;79.41797;938.6005;;;;
2023/09/13 12:06:00;;;;;;;4;2.5;;;;;;;22.66;79.69922;938.6041;;;;
2023/09/13 12:08:29;;;;;;;3.7;2.5;;;;;;;22.4;80.59082;938.6347;;;;
2023/09/13 12:10:53;;;;;;;3.5;2.7;;;;;;;22.41;80.51074;938.6456;;;;
2023/09/13 12:13:18;;;;;;;4.6;2.5;;;;;;;22.33;76.19141;938.5901;;;;
2023/09/13 12:15:43;;;;;;;4.7;2.5;;;;;;;22.3;79.9043;938.678;;;;
2023/09/13 12:18:13;;;;;;;3.5;2.6;;;;;;;22.21;79.8291;938.7131;;;;
2023/09/13 12:20:36;;;;;;;3.3;2.7;;;;;;;22.34;80.42676;938.752;;;;
2023/09/13 12:23:02;;;;;;;3.1;2.8;;;;;;;22.23;82.91699;938.726;;;;
2023/09/13 12:25:27;;;;;;;4.9;2.8;;;;;;;22.43;81.38184;938.745;;;;
2023/09/13 12:27:53;;;;;;;4.3;2.9;;;;;;;22.42;82.35352;938.7573;;;;
2023/09/13 12:30:18;;;;;;;5;3;;;;;;;22.27;82.33887;938.6953;;;;
2023/09/13 12:32:43;;;;;;;3.7;2.6;;;;;;;22.03;84.59082;938.7492;;;;
2023/09/13 12:35:10;;;;;;;5.8;3.5;;;;;;;22.06;85.14844;938.7573;;;;
2023/09/13 12:37:35;;;;;;;3.3;3;;;;;;;22.2;84.33008;938.7243;;;;
2023/09/13 12:40:00;;;;;;;3.7;3;;;;;;;22.34;81.68359;938.7772;;;;
2023/09/13 12:42:25;;;;;;;3.8;2.7;;;;;;;22.28;82.65527;938.7744;;;;
2023/09/13 12:44:50;;;;;;;3;2.6;;;;;;;22.4;83.44141;938.7838;;;;
2023/09/13 12:47:16;;;;;;;4.5;2.8;;;;;;;22.45;84.42578;938.7514;;;;
2023/09/13 12:49:41;;;;;;;5.4;2.9;;;;;;;22.34;84.94434;938.7729;;;;
2023/09/13 12:52:07;;;;;;;3.3;2.5;;;;;;;22.54;82.90527;938.7799;;;;
2023/09/13 12:54:32;;;;;;;5.5;2.5;;;;;;;22.64;78.89844;938.6881;;;;
2023/09/13 12:56:58;;;;;;;3.8;2.7;;;;;;;22.84;82.14941;938.7759;;;;
2023/09/13 12:59:24;;;;;;;3.5;3;;;;;;;23.08;80.73926;938.7718;;;;
2023/09/13 13:01:51;;;;;;;4.1;2.9;;;;;;;23.19;78.97266;938.7472;;;;
2023/09/13 13:04:16;;;;;;;4;2.3;;;;;;;23.11;78.98145;938.8113;;;;
2023/09/13 13:06:41;;;;;;;3.7;2.6;;;;;;;23.11;79.3457;938.8185;;;;
2023/09/13 13:09:06;;;;;;;3.4;2.5;;;;;;;22.9;80.2832;938.7383;;;;
2023/09/13 13:11:32;;;;;;;4.3;3;;;;;;;22.4;85.57617;938.8343;;;;
2023/09/13 13:13:57;;;;;;;4.2;3.2;;;;;;;22.19;87.72754;938.7701;;;;
2023/09/13 13:16:23;;;;;;;3.8;3.1;;;;;;;22.25;86.61621;938.7648;;;;
2023/09/13 13:18:49;;;;;;;3.7;3;;;;;;;22.19;85.46582;938.8356;;;;
2023/09/13 13:21:13;;;;;;;3.6;2.7;;;;;;;22.27;82.83105;938.7869;;;;
2023/09/13 13:23:42;;;;;;;3.7;2.6;;;;;;;22.1;82.71777;938.7844;;;;
2023/09/13 13:26:03;;;;;;;4.6;3.1;;;;;;;22.08;82.62988;938.7673;;;;
2023/09/13 13:28:28;;;;;;;3.3;2.5;;;;;;;22.09;80.3125;938.7734;;;;
2023/09/13 13:30:56;;;;;;;3.8;2.9;;;;;;;21.81;81.61914;938.7617;;;;
2023/09/13 13:33:18;;;;;;;4.2;2.8;;;;;;;21.7;83.35645;938.7312;;;;
2023/09/13 13:35:45;;;;;;;4.3;3.3;;;;;;;21.61;84.21875;938.7233;;;;
2023/09/13 13:38:10;;;;;;;4.4;3;;;;;;;21.53;86.48633;938.7219;;;;
2023/09/13 13:40:35;;;;;;;3.5;3.1;;;;;;;21.22;87.16211;938.7567;;;;
2023/09/13 13:43:02;;;;;;;4.4;3.1;;;;;;;20.73;90.85059;938.8282;;;;
2023/09/13 13:45:27;;;;;;;3.8;3.3;;;;;;;20.73;90.59766;938.8401;;;;
2023/09/13 13:47:52;;;;;;;4.6;3.5;;;;;;;20.78;90.9209;938.821;;;;
2023/09/13 13:50:17;;;;;;;3.9;3.3;;;;;;;20.88;90.26465;938.8442;;;;
2023/09/13 13:52:42;;;;;;;4.3;3.6;;;;;;;20.91;90.51563;938.8757;;;;
2023/09/13 13:55:10;;;;;;;6.7;3.3;;;;;;;20.78;91.68164;938.8929;;;;
2023/09/13 13:57:35;;;;;;;4.4;3.3;;;;;;;20.89;91.20313;938.8738;;;;
2023/09/13 14:00:02;;;;;;;4.2;3.2;;;;;;;20.95;91.03906;938.9384;;;;
2023/09/13 14:02:35;;;;;;;5.3;3.3;;;;;;;20.8;94.1875;938.9103;;;;
2023/09/13 14:04:52;;;;;;;4.7;3.5;;;;;;;20.48;93.50098;938.9617;;;;
2023/09/13 14:07:18;;;;;;;5.1;3.8;;;;;;;20.36;96.0332;938.9483;;;;
2023/09/13 14:09:43;;;;;;;5;3.7;;;;;;;20.39;95.57227;938.9581;;;;
2023/09/13 14:12:09;;;;;;;5.8;4.1;;;;;;;20.41;94.4668;938.9497;;;;
2023/09/13 14:14:34;;;;;;;4.4;3.6;;;;;;;20.43;95.19434;938.973;;;;
2023/09/13 14:17:03;;;;;;;4.8;3.8;;;;;;;20.43;95.89551;938.9924;;;;
2023/09/13 14:19:25;;;;;;;7.8;4;;;;;;;20.35;94.62793;938.968;;;;
2023/09/13 14:21:51;;;;;;;6;4.2;;;;;;;20.41;93.37891;938.9741;;;;
2023/09/13 14:24:16;;;;;;;6.1;3.8;;;;;;;20.21;94.89063;938.9708;;;;
2023/09/13 14:26:43;;;;;;;6;3.9;;;;;;;20.19;94.70996;938.9753;;;;
2023/09/13 14:29:09;;;;;;;5.4;4.2;;;;;;;20;97.59766;938.9202;;;;
2023/09/13 14:31:36;;;;;;;4.2;3.8;;;;;;;20.06;97.70508;938.9997;;;;
2023/09/13 14:33:59;;;;;;;4.4;3.9;;;;;;;20.06;96.86523;939.0458;;;;
2023/09/13 14:36:26;;;;;;;6.7;4.7;;;;;;;20.09;96.59082;939.0159;;;;
2023/09/13 14:38:51;;;;;;;4.6;4.1;;;;;;;19.95;96.11816;939.05;;;;
2023/09/13 14:41:16;;;;;;;5.9;4.5;;;;;;;19.93;95.63574;939.0204;;;;